Logansport, IN

3:26 AM EST on January 20, 2017 (GMT -0500)
Logansport Municipal

Weather History for KGGP - November, 2012

Change the Weather History Date:

Thursday, November 1, 2012

  Actual Average Record
Temperature  
Mean Temperature 40 °F -  
Max Temperature 51 °F 58 °F 77 °F (2016)
Min Temperature 28 °F 44 °F 28 °F (2014)
Degree Days  
Heating Degree Days 26    
Moisture  
Dew Point 27 °F    
Average Humidity 63    
Maximum Humidity 93    
Minimum Humidity 30    
Precipitation  
Precipitation 0.00 in - - ()
Sea Level Pressure  
Sea Level Pressure 29.84 in    
Wind  
Wind Speed 7 mph ()    
Max Wind Speed 16 mph    
Max Gust Speed 21 mph    
Visibility 10.0 miles    
Events      
Averages and records for this station are not official NWS values.
T = Trace of Precipitation, MM = Missing Value Source: Averaged Metar Reports

Daily Weather History Graph

Daily Weather History Graph

Search for Another Location

Airport or City:

Trip Planner

Search our weather history database for the weather conditions in past years. The results will help you decide how hot, cold, wet, or windy it might be!

Date:

Astronomy

Nov. 01, 2012 Rise Set
Actual Time 8:16 AM EDT 6:41 PM EDT
Civil Twilight 7:47 AM EDT 7:09 PM EDT
Nautical Twilight 7:15 AM EDT 7:41 PM EDT
Astronomical Twilight 6:43 AM EDT 8:13 PM EDT
Moon 8:37 PM EDT (11/1) 10:49 AM EDT (11/1)
Length of Visible Light 11h 21m
Length of Day
10h 24m
Waning Gibbous, 93% of the Moon is Illuminated
Nov 1
Waning Gibbous
Nov 6
Last Quarter
Nov 13
New
Nov 20
First Quarter
Nov 28
Full

Hourly Weather History & Observations

Time (EDT) Temp. Windchill Dew Point Humidity Pressure Visibility Wind Dir Wind Speed Gust Speed Precip Events Conditions
12:15 AM 37.4 °F 34.9 °F 32.0 °F 81% 29.83 in 10.0 mi West 3.5 mph - N/A   Overcast
12:35 AM 39.2 °F 33.6 °F 32.0 °F 75% 29.83 in 10.0 mi West 8.1 mph - N/A   Overcast
12:55 AM 39.2 °F 33.6 °F 32.0 °F 75% 29.82 in 10.0 mi West 8.1 mph - N/A   Overcast
1:15 AM 41.0 °F 35.8 °F 32.0 °F 70% 29.82 in 10.0 mi West 8.1 mph - N/A   Overcast
1:35 AM 41.0 °F 36.4 °F 32.0 °F 70% 29.82 in 10.0 mi West 6.9 mph - N/A   Overcast
1:55 AM 37.4 °F 32.1 °F 32.0 °F 81% 29.82 in 10.0 mi West 6.9 mph - N/A   Overcast
2:15 AM 37.4 °F 32.1 °F 32.0 °F 81% 29.82 in 10.0 mi West 6.9 mph - N/A   Mostly Cloudy
2:35 AM 35.6 °F 29.9 °F 32.0 °F 87% 29.82 in 10.0 mi West 6.9 mph - N/A   Scattered Clouds
2:55 AM 33.8 °F 27.7 °F 32.0 °F 93% 29.83 in 10.0 mi West 6.9 mph - N/A   Clear
3:15 AM 33.8 °F 27.0 °F 32.0 °F 93% 29.83 in 10.0 mi West 8.1 mph - N/A   Clear
3:35 AM 33.8 °F 27.0 °F 30.2 °F 87% 29.83 in 10.0 mi West 8.1 mph - N/A   Clear
3:55 AM 32.0 °F 25.6 °F 30.2 °F 93% 29.83 in 10.0 mi West 6.9 mph - N/A   Clear
4:15 AM 32.0 °F 25.6 °F 28.4 °F 87% 29.83 in 10.0 mi West 6.9 mph - N/A   Clear
4:35 AM 32.0 °F 25.6 °F 28.4 °F 87% 29.83 in 10.0 mi West 6.9 mph - N/A   Clear
4:55 AM 32.0 °F 25.6 °F 26.6 °F 80% 29.83 in 10.0 mi West 6.9 mph - N/A   Clear
5:15 AM 32.0 °F 25.6 °F 26.6 °F 80% 29.83 in 10.0 mi West 6.9 mph - N/A   Clear
5:35 AM 32.0 °F 25.6 °F 26.6 °F 80% 29.83 in 10.0 mi West 6.9 mph - N/A   Clear
5:55 AM 30.2 °F 23.4 °F 24.8 °F 80% 29.83 in 10.0 mi West 6.9 mph - N/A   Clear
6:15 AM 30.2 °F 24.3 °F 23.0 °F 75% 29.84 in 10.0 mi West 5.8 mph - N/A   Clear
6:35 AM 30.2 °F 23.4 °F 23.0 °F 75% 29.84 in 10.0 mi West 6.9 mph - N/A   Clear
6:55 AM 30.2 °F 22.6 °F 23.0 °F 75% 29.84 in 10.0 mi West 8.1 mph - N/A   Clear
7:35 AM 28.4 °F 19.7 °F 23.0 °F 80% 29.84 in 10.0 mi West 9.2 mph - N/A   Scattered Clouds
7:55 AM 30.2 °F 24.3 °F 23.0 °F 75% 29.85 in 10.0 mi West 5.8 mph - N/A   Mostly Cloudy
8:15 AM 30.2 °F 23.4 °F 23.0 °F 75% 29.86 in 10.0 mi West 6.9 mph - N/A   Overcast
8:35 AM 32.0 °F 24.8 °F 23.0 °F 69% 29.86 in 10.0 mi West 8.1 mph - N/A   Overcast
8:55 AM 32.0 °F 26.4 °F 23.0 °F 69% 29.86 in 10.0 mi West 5.8 mph - N/A   Overcast
9:15 AM 32.0 °F 24.8 °F 23.0 °F 69% 29.87 in 10.0 mi West 8.1 mph - N/A   Overcast
9:35 AM 32.0 °F 24.2 °F 23.0 °F 69% 29.87 in 10.0 mi West 9.2 mph - N/A   Overcast
9:55 AM 32.0 °F 24.2 °F 23.0 °F 69% 29.89 in 10.0 mi West 9.2 mph - N/A   Overcast
10:15 AM 33.8 °F 27.0 °F 23.0 °F 65% 29.88 in 10.0 mi West 8.1 mph - N/A   Overcast
10:35 AM 33.8 °F 26.4 °F 24.8 °F 70% 29.88 in 10.0 mi West 9.2 mph - N/A   Overcast
11:15 AM 39.2 °F 35.0 °F 26.6 °F 61% 29.88 in 10.0 mi West 5.8 mph - N/A   Clear
11:35 AM 41.0 °F 34.7 °F 26.6 °F 57% 29.88 in 10.0 mi West 10.4 mph - N/A   Clear
11:55 AM 42.8 °F 37.0 °F 26.6 °F 53% 29.89 in 10.0 mi West 10.4 mph - N/A   Scattered Clouds
12:15 PM 42.8 °F 37.0 °F 23.0 °F 46% 29.88 in 10.0 mi West 10.4 mph - N/A   Scattered Clouds
12:35 PM 44.6 °F 38.8 °F 23.0 °F 43% 29.88 in 10.0 mi West 11.5 mph - N/A   Clear
1:15 PM 48.2 °F - 23.0 °F 37% 29.87 in 10.0 mi West 10.4 mph 16.1 mph N/A   Overcast
1:35 PM 50.0 °F - 23.0 °F 35% 29.86 in 10.0 mi West 12.7 mph 18.4 mph N/A   Mostly Cloudy
1:55 PM 50.0 °F - 19.4 °F 30% 29.85 in 10.0 mi WNW 10.4 mph - N/A   Mostly Cloudy
2:15 PM 50.0 °F - 23.0 °F 35% 29.85 in 10.0 mi West 12.7 mph 17.3 mph N/A   Mostly Cloudy
2:35 PM 50.0 °F - 23.0 °F 35% 29.84 in 10.0 mi West 10.4 mph - N/A   Mostly Cloudy
2:55 PM 50.0 °F - 24.8 °F 37% 29.83 in 10.0 mi West 16.1 mph 20.7 mph N/A   Mostly Cloudy
3:15 PM 51.8 °F - 28.4 °F 41% 29.83 in 10.0 mi WNW 9.2 mph - N/A   Mostly Cloudy
3:35 PM 51.8 °F - 28.4 °F 41% 29.82 in 10.0 mi WNW 9.2 mph - N/A   Mostly Cloudy
3:55 PM 51.8 °F - 28.4 °F 41% 29.82 in 10.0 mi West 12.7 mph 16.1 mph N/A   Mostly Cloudy
4:15 PM 50.0 °F - 28.4 °F 43% 29.83 in 10.0 mi West 10.4 mph - N/A   Overcast
4:35 PM 48.2 °F - 30.2 °F 50% 29.82 in 10.0 mi West 11.5 mph - N/A   Mostly Cloudy
5:15 PM 50.0 °F - 30.2 °F 47% 29.82 in 10.0 mi West 12.7 mph 17.3 mph N/A   Overcast
5:35 PM 50.0 °F - 30.2 °F 47% 29.82 in 10.0 mi West 9.2 mph - N/A   Overcast
5:55 PM 50.0 °F - 30.2 °F 47% 29.83 in 10.0 mi West 8.1 mph 16.1 mph N/A   Overcast
6:15 PM 48.2 °F - 30.2 °F 50% 29.83 in 10.0 mi West 8.1 mph - N/A   Overcast
6:35 PM 48.2 °F - 28.4 °F 46% 29.83 in 10.0 mi West 10.4 mph - N/A   Overcast
6:55 PM 48.2 °F - 28.4 °F 46% 29.84 in 10.0 mi West 9.2 mph - N/A   Overcast
7:15 PM 46.4 °F 43.5 °F 30.2 °F 53% 29.84 in 10.0 mi West 5.8 mph - N/A   Overcast
7:35 PM 46.4 °F 42.9 °F 28.4 °F 50% 29.85 in 10.0 mi West 6.9 mph - N/A   Overcast
7:55 PM 44.6 °F 40.7 °F 30.2 °F 57% 29.85 in 10.0 mi West 6.9 mph - N/A   Overcast
8:15 PM 44.6 °F 41.4 °F 28.4 °F 53% 29.85 in 10.0 mi WNW 5.8 mph - N/A   Overcast
8:35 PM 44.6 °F 41.4 °F 28.4 °F 53% 29.85 in 10.0 mi WNW 5.8 mph - N/A   Mostly Cloudy
8:55 PM 44.6 °F 43.1 °F 28.4 °F 53% 29.85 in 10.0 mi NW 3.5 mph - N/A   Overcast
9:15 PM 44.6 °F 43.1 °F 28.4 °F 53% 29.85 in 10.0 mi WNW 3.5 mph - N/A   Overcast
9:55 PM 44.6 °F 43.1 °F 28.4 °F 53% 29.85 in 10.0 mi NNW 3.5 mph - N/A   Overcast
10:15 PM 42.8 °F 41.1 °F 30.2 °F 61% 29.85 in 10.0 mi NNW 3.5 mph - N/A   Overcast
10:35 PM 42.8 °F 40.1 °F 30.2 °F 61% 29.85 in 10.0 mi North 4.6 mph - N/A   Overcast
10:55 PM 42.8 °F - 30.2 °F 61% 29.85 in 10.0 mi Calm Calm - N/A   Overcast
11:15 PM 41.0 °F 39.0 °F 30.2 °F 65% 29.85 in 10.0 mi NNW 3.5 mph - N/A   Overcast
11:35 PM 39.2 °F 35.0 °F 32.0 °F 75% 29.86 in 10.0 mi SW 5.8 mph - N/A   Overcast
11:55 PM 39.2 °F 37.0 °F 32.0 °F 75% 29.85 in 10.0 mi NNW 3.5 mph - N/A   Overcast